createdAt,value
2022-09-27T00:02:32.819Z,94607.84
2022-09-27T00:05:18.925Z,94623.59
2022-09-27T00:08:05.136Z,94623.84
2022-09-27T00:10:59.339Z,94622.75
2022-09-27T00:13:45.782Z,94617.34
2022-09-27T00:16:34.368Z,94596.50
2022-09-27T00:19:22.679Z,94584.34
2022-09-27T00:22:08.615Z,94568.03
2022-09-27T00:24:55.114Z,94590.56
2022-09-27T00:27:41.005Z,94587.88
2022-09-27T00:30:27.243Z,94576.47
2022-09-27T00:33:13.261Z,94571.06
2022-09-27T00:36:06.685Z,94572.72
2022-09-27T00:38:53.339Z,94556.66
2022-09-27T00:41:39.816Z,94560.44
2022-09-27T00:44:37.968Z,94570.00
2022-09-27T00:47:23.792Z,94578.66
2022-09-27T00:50:22.182Z,94569.34
2022-09-27T00:53:11.480Z,94582.47
2022-09-27T00:56:02.486Z,94573.22
2022-09-27T00:58:54.184Z,94559.69
2022-09-27T01:01:40.923Z,94564.00
2022-09-27T01:04:28.481Z,94551.59
2022-09-27T01:07:15.204Z,94548.59
2022-09-27T01:10:01.755Z,94527.94
2022-09-27T01:13:19.794Z,94518.88
2022-09-27T01:16:20.033Z,94550.75
2022-09-27T01:19:27.042Z,94546.97
2022-09-27T01:22:45.717Z,94519.81
2022-09-27T01:26:04.222Z,94515.75
2022-09-27T01:29:07.537Z,94503.63
2022-09-27T01:32:11.980Z,94497.31
2022-09-27T01:34:57.933Z,94510.88
2022-09-27T01:37:55.834Z,94510.09
2022-09-27T01:41:12.588Z,94480.50
2022-09-27T01:44:09.490Z,94489.47
2022-09-27T01:47:10.221Z,94502.81
2022-09-27T01:50:25.621Z,94494.09
2022-09-27T01:53:24.310Z,94489.47
2022-09-27T01:56:32.220Z,94492.25
2022-09-27T01:59:31.332Z,94505.72
2022-09-27T02:02:34.210Z,94504.38
2022-09-27T02:05:44.042Z,94501.41
2022-09-27T02:08:48.861Z,94511.84
2022-09-27T02:12:00.290Z,94527.09
2022-09-27T02:14:55.385Z,94529.25
2022-09-27T02:18:11.142Z,94512.16
2022-09-27T02:21:01.533Z,94518.19
2022-09-27T02:23:52.723Z,94514.91
2022-09-27T02:26:44.957Z,94501.13
2022-09-27T02:29:39.936Z,94488.13
2022-09-27T02:32:27.426Z,94485.19
2022-09-27T02:35:26.950Z,94497.84
2022-09-27T02:38:13.913Z,94488.47
2022-09-27T02:41:00.153Z,94471.41
2022-09-27T02:43:49.989Z,94465.72
2022-09-27T02:46:53.210Z,94464.09
2022-09-27T02:49:58.364Z,94459.47
2022-09-27T02:53:30.551Z,94462.94
2022-09-27T02:56:28.097Z,94455.69
2022-09-27T02:59:49.733Z,94439.69
2022-09-27T03:02:56.082Z,94423.13
2022-09-27T03:06:07.050Z,94422.59
2022-09-27T03:08:53.588Z,94437.53
2022-09-27T03:11:39.572Z,94434.84
2022-09-27T03:14:25.966Z,94440.75
2022-09-27T03:17:26.398Z,94438.94
2022-09-27T03:20:35.514Z,94434.53
2022-09-27T03:23:30.207Z,94437.00
2022-09-27T03:26:17.332Z,94418.00
2022-09-27T03:29:03.473Z,94447.00
2022-09-27T03:31:49.560Z,94446.16
2022-09-27T03:34:50.536Z,94445.66
2022-09-27T03:37:36.767Z,94444.56
2022-09-27T03:40:23.125Z,94424.53
2022-09-27T03:43:09.250Z,94426.41
2022-09-27T03:45:55.452Z,94414.25
2022-09-27T03:48:42.693Z,94414.00
2022-09-27T03:51:29.275Z,94412.09
2022-09-27T03:54:15.381Z,94407.78
2022-09-27T03:57:01.053Z,94387.19
2022-09-27T03:59:47.298Z,94381.78
2022-09-27T04:02:52.156Z,94382.56
2022-09-27T04:05:44.179Z,94386.09
2022-09-27T04:08:35.222Z,94377.47
2022-09-27T04:11:23.792Z,94373.06
2022-09-27T04:14:13.001Z,94383.69
2022-09-27T04:17:17.896Z,94380.16
2022-09-27T04:20:20.338Z,94370.97
2022-09-27T04:23:06.332Z,94367.44
2022-09-27T04:25:54.094Z,94360.13
2022-09-27T04:28:58.445Z,94382.59
2022-09-27T04:31:44.841Z,94383.34
2022-09-27T04:34:49.026Z,94365.16
2022-09-27T04:37:41.999Z,94373.59
2022-09-27T04:40:28.036Z,94385.78
2022-09-27T04:43:13.833Z,94390.66
2022-09-27T04:45:59.709Z,94390.09
2022-09-27T04:48:46.026Z,94398.50
2022-09-27T04:51:31.917Z,94400.88
2022-09-27T04:54:19.221Z,94396.59
2022-09-27T04:57:18.357Z,94394.22
2022-09-27T05:00:05.558Z,94403.41
2022-09-27T05:02:51.780Z,94400.72
2022-09-27T05:06:04.119Z,94396.84
2022-09-27T05:08:50.329Z,94397.69
2022-09-27T05:11:39.372Z,94403.66
2022-09-27T05:14:43.786Z,94374.38
2022-09-27T05:17:42.755Z,94388.06
2022-09-27T05:20:59.062Z,94402.31
2022-09-27T05:23:54.747Z,94406.38
2022-09-27T05:26:41.998Z,94409.34
2022-09-27T05:29:28.187Z,94405.53
2022-09-27T05:32:32.828Z,94403.41
2022-09-27T05:35:52.759Z,94398.81
2022-09-27T05:47:05.547Z,94386.00
2022-09-27T05:49:53.935Z,94375.72
2022-09-27T05:52:40.016Z,94386.44
2022-09-27T05:55:26.793Z,94389.22
2022-09-27T05:58:16.236Z,94397.50
2022-09-27T06:01:11.903Z,94404.31
2022-09-27T06:04:17.053Z,94391.88
2022-09-27T06:07:15.091Z,94403.06
2022-09-27T06:10:01.398Z,94371.91
2022-09-27T06:12:47.469Z,94393.13
2022-09-27T06:15:54.084Z,94386.41
2022-09-27T06:18:40.604Z,94386.94
2022-09-27T06:21:28.776Z,94382.94
2022-09-27T06:24:16.865Z,94380.41
2022-09-27T06:27:04.753Z,94383.19
2022-09-27T06:30:20.367Z,94381.31
2022-09-27T06:33:17.559Z,94396.50
2022-09-27T06:36:09.864Z,94386.19
2022-09-27T06:38:58.174Z,94380.28
2022-09-27T06:41:57.853Z,94395.47
2022-09-27T06:45:07.241Z,94410.38
2022-09-27T06:48:06.521Z,94412.78
2022-09-27T06:51:00.219Z,94407.69
2022-09-27T06:53:46.400Z,94411.22
2022-09-27T06:56:32.375Z,94408.25
2022-09-27T06:59:36.748Z,94392.84
2022-09-27T07:02:41.375Z,94387.44
2022-09-27T07:05:59.118Z,94391.53
2022-09-27T07:09:08.133Z,94378.81
2022-09-27T07:11:55.318Z,94393.72
2022-09-27T07:14:41.421Z,94368.19
2022-09-27T07:17:31.555Z,94387.28
2022-09-27T07:20:18.663Z,94381.56
2022-09-27T07:23:06.723Z,94378.91
2022-09-27T07:25:53.129Z,94391.66
2022-09-27T07:28:41.590Z,94383.78
2022-09-27T07:31:30.106Z,94391.69
2022-09-27T07:34:18.238Z,94393.81
2022-09-27T07:37:05.685Z,94405.75
2022-09-27T07:39:56.249Z,94403.88
2022-09-27T07:42:44.047Z,94394.13
2022-09-27T07:45:31.260Z,94405.78
2022-09-27T07:48:41.267Z,94390.88
2022-09-27T07:51:47.414Z,94404.69
2022-09-27T07:55:06.411Z,94401.44
2022-09-27T07:58:10.149Z,94396.81
2022-09-27T08:00:59.491Z,94397.59
2022-09-27T08:03:45.606Z,94388.97
2022-09-27T08:06:32.489Z,94380.03
2022-09-27T08:09:18.505Z,94347.72
2022-09-27T08:12:04.854Z,94372.72
2022-09-27T08:14:52.379Z,94358.06
2022-09-27T08:17:38.338Z,94374.09
2022-09-27T08:20:32.332Z,94381.38
2022-09-27T08:23:27.088Z,94389.00
2022-09-27T08:26:45.018Z,94408.03
2022-09-27T08:29:41.708Z,94383.53
2022-09-27T08:32:28.833Z,94381.94
2022-09-27T08:35:15.668Z,94373.25
2022-09-27T08:38:03.003Z,94371.63
2022-09-27T08:41:22.882Z,94381.13
2022-09-27T08:44:30.710Z,94367.56
2022-09-27T08:47:35.130Z,94353.22
2022-09-27T08:50:21.701Z,94360.25
2022-09-27T08:53:21.166Z,94359.72
2022-09-27T08:56:08.880Z,94386.88
2022-09-27T08:59:12.850Z,94400.44
2022-09-27T09:01:59.350Z,94382.53
2022-09-27T09:04:57.975Z,94376.00
2022-09-27T09:07:55.973Z,94383.59
2022-09-27T09:11:03.889Z,94377.06
2022-09-27T09:13:49.872Z,94365.69
2022-09-27T09:16:57.318Z,94371.91
2022-09-27T09:19:56.060Z,94367.84
2022-09-27T09:22:50.684Z,94367.84
2022-09-27T09:25:55.634Z,94371.63
2022-09-27T09:29:02.814Z,94368.91
2022-09-27T09:32:27.296Z,94357.78
2022-09-27T09:35:40.424Z,94347.19
2022-09-27T09:38:26.549Z,94367.81
2022-09-27T09:41:20.344Z,94373.00
2022-09-27T09:44:15.642Z,94364.03
2022-09-27T09:47:03.242Z,94361.56
2022-09-27T09:49:53.110Z,94341.53
2022-09-27T09:52:54.360Z,94355.63
2022-09-27T09:55:44.774Z,94349.09
2022-09-27T09:58:44.898Z,94348.53
2022-09-27T10:01:40.442Z,94342.56
2022-09-27T10:04:28.127Z,94333.59
2022-09-27T10:07:20.055Z,94340.09
2022-09-27T10:10:08.494Z,94339.56
2022-09-27T10:13:13.597Z,94326.81
2022-09-27T10:16:02.511Z,94315.69
2022-09-27T10:18:50.341Z,94315.09
2022-09-27T10:21:41.073Z,94323.25
2022-09-27T10:24:27.034Z,94321.34
2022-09-27T10:27:27.957Z,94307.19
2022-09-27T10:30:32.193Z,94317.22
2022-09-27T10:33:21.268Z,94312.09
2022-09-27T10:36:24.497Z,94319.59
2022-09-27T10:39:22.286Z,94320.13
2022-09-27T10:42:37.925Z,94308.47
2022-09-27T10:45:33.049Z,94315.72
2022-09-27T10:48:33.788Z,94321.09
2022-09-27T10:51:30.749Z,94317.81
2022-09-27T10:54:23.651Z,94308.25
2022-09-27T10:57:19.315Z,94303.59
2022-09-27T11:00:27.806Z,94309.38
2022-09-27T11:03:15.809Z,94310.03
2022-09-27T11:06:24.486Z,94309.25
2022-09-27T11:09:26.374Z,94298.63
2022-09-27T11:12:14.776Z,94296.88
2022-09-27T11:15:11.074Z,94298.84
2022-09-27T11:18:27.597Z,94290.16
2022-09-27T11:21:40.149Z,94299.50
2022-09-27T11:24:32.564Z,94287.50
2022-09-27T11:27:28.792Z,94283.75
2022-09-27T11:30:17.321Z,94295.56
2022-09-27T11:33:27.074Z,94280.91
2022-09-27T11:36:31.611Z,94297.75
2022-09-27T11:39:22.240Z,94280.31
2022-09-27T11:42:29.422Z,94277.34
2022-09-27T11:45:50.411Z,94273.16
2022-09-27T11:49:12.698Z,94275.38
2022-09-27T11:52:05.972Z,94267.47
2022-09-27T11:55:24.444Z,94261.72
2022-09-27T11:58:28.079Z,94254.84
2022-09-27T12:01:35.754Z,94242.09
2022-09-27T12:04:40.073Z,94250.03
2022-09-27T12:07:45.365Z,94259.06
2022-09-27T12:10:31.885Z,94266.72
2022-09-27T12:13:27.364Z,94264.31
2022-09-27T12:16:17.011Z,94247.78
2022-09-27T12:19:03.585Z,94262.59
2022-09-27T12:22:15.378Z,94266.81
2022-09-27T12:25:05.019Z,94249.50
2022-09-27T12:28:25.933Z,94261.78
2022-09-27T12:31:30.093Z,94266.53
2022-09-27T12:34:21.554Z,94288.97
2022-09-27T12:37:33.088Z,94277.75
2022-09-27T12:40:29.580Z,94269.69
2022-09-27T12:43:18.785Z,94269.81
2022-09-27T12:46:43.701Z,94271.56
2022-09-27T12:49:57.632Z,94259.47
2022-09-27T12:52:52.699Z,94266.50
2022-09-27T12:56:01.286Z,94254.28
2022-09-27T12:59:10.366Z,94231.34
2022-09-27T13:02:21.999Z,94241.78
2022-09-27T13:05:53.354Z,94242.47
2022-09-27T13:09:11.405Z,94254.22
2022-09-27T13:12:11.017Z,94227.28
2022-09-27T13:15:06.713Z,94249.31
2022-09-27T13:17:56.699Z,94252.03
2022-09-27T13:20:52.108Z,94232.00
2022-09-27T13:23:58.036Z,94241.03
2022-09-27T13:26:50.425Z,94238.44
2022-09-27T13:29:36.460Z,94250.56
2022-09-27T13:32:29.058Z,94243.69
2022-09-27T13:35:31.101Z,94259.00
2022-09-27T13:38:25.573Z,94260.75
2022-09-27T13:41:18.189Z,94255.91
2022-09-27T13:44:34.177Z,94257.63
2022-09-27T13:47:36.167Z,94241.25
2022-09-27T13:50:48.958Z,94240.63
2022-09-27T13:53:39.541Z,94262.44
2022-09-27T13:56:36.757Z,94256.44
2022-09-27T13:59:49.296Z,94233.84
2022-09-27T14:03:15.660Z,94241.50
2022-09-27T14:06:08.875Z,94235.63
2022-09-27T14:08:58.576Z,94238.72
2022-09-27T14:11:50.825Z,94241.59
2022-09-27T14:14:37.506Z,94239.16
2022-09-27T14:17:23.981Z,94243.81
2022-09-27T14:20:33.154Z,94224.41
2022-09-27T14:23:23.477Z,94222.28
2022-09-27T14:26:27.797Z,94238.59
2022-09-27T14:29:22.334Z,94231.19
2022-09-27T14:32:13.525Z,94246.41
2022-09-27T14:35:34.594Z,94241.66
2022-09-27T14:38:38.940Z,94240.00
2022-09-27T14:41:45.838Z,94242.81
2022-09-27T14:44:32.520Z,94239.94
2022-09-27T14:47:20.026Z,94236.56
2022-09-27T14:50:30.114Z,94245.06
2022-09-27T14:53:25.858Z,94244.47
2022-09-27T14:56:18.085Z,94247.81
2022-09-27T14:59:17.036Z,94253.81
2022-09-27T15:02:10.355Z,94241.00
2022-09-27T15:04:56.551Z,94245.84
2022-09-27T15:07:44.383Z,94239.41
2022-09-27T15:10:33.610Z,94243.63
2022-09-27T15:13:19.744Z,94240.59
2022-09-27T15:16:16.459Z,94238.06
2022-09-27T15:19:29.419Z,94247.19
2022-09-27T15:22:24.637Z,94243.56
2022-09-27T15:25:24.629Z,94245.53
2022-09-27T15:28:19.412Z,94256.44
2022-09-27T15:31:07.765Z,94259.00
2022-09-27T15:33:56.038Z,94258.00
2022-09-27T15:36:55.097Z,94268.88
2022-09-27T15:39:42.194Z,94282.97
2022-09-27T15:42:28.000Z,94279.81
2022-09-27T15:45:34.987Z,94284.91
2022-09-27T15:48:21.277Z,94282.94
2022-09-27T15:51:40.359Z,94285.47
2022-09-27T15:54:30.273Z,94278.00
2022-09-27T15:57:16.490Z,94294.25
2022-09-27T16:00:02.627Z,94290.06
2022-09-27T16:02:57.660Z,94300.69
2022-09-27T16:05:43.912Z,94295.00
2022-09-27T16:08:30.196Z,94293.59
2022-09-27T16:11:17.491Z,94283.78
2022-09-27T16:14:03.783Z,94305.34
2022-09-27T16:16:51.884Z,94309.13
2022-09-27T16:19:37.995Z,94311.78
2022-09-27T16:22:24.173Z,94315.88
2022-09-27T16:25:10.499Z,94304.41
2022-09-27T16:28:00.665Z,94307.72
2022-09-27T16:30:48.070Z,94321.53
2022-09-27T16:33:35.769Z,94307.16
2022-09-27T16:36:21.867Z,94334.53
2022-09-27T16:39:12.950Z,94332.06
2022-09-27T16:41:59.936Z,94332.78
2022-09-27T16:44:48.173Z,94341.19
2022-09-27T16:47:34.459Z,94330.50
2022-09-27T16:50:39.121Z,94329.03
2022-09-27T16:53:25.315Z,94358.84
2022-09-27T16:56:11.948Z,94342.09
2022-09-27T16:58:59.364Z,94350.41
2022-09-27T17:01:45.341Z,94352.19
2022-09-27T17:04:31.776Z,94354.47
2022-09-27T17:07:18.268Z,94363.03
2022-09-27T17:10:05.157Z,94381.03
2022-09-27T17:12:51.185Z,94378.19
2022-09-27T17:15:37.942Z,94385.91
2022-09-27T17:18:24.176Z,94385.22
2022-09-27T17:21:10.312Z,94398.28
2022-09-27T17:23:57.037Z,94401.66
2022-09-27T17:26:43.610Z,94400.59
2022-09-27T17:29:31.717Z,94401.47
2022-09-27T17:32:24.207Z,94418.66
2022-09-27T17:35:10.701Z,94417.63
2022-09-27T17:37:56.574Z,94418.19
2022-09-27T17:40:42.470Z,94424.72
2022-09-27T17:43:32.059Z,94418.00
2022-09-27T17:46:19.939Z,94418.53
2022-09-27T17:49:24.657Z,94434.56
2022-09-27T17:52:10.714Z,94430.50
2022-09-27T17:54:58.452Z,94413.16
2022-09-27T17:57:47.766Z,94430.53
2022-09-27T18:00:34.273Z,94429.47
2022-09-27T18:03:20.824Z,94435.44
2022-09-27T18:06:07.769Z,94432.72
2022-09-27T18:08:54.907Z,94446.03
2022-09-27T18:11:41.088Z,94431.38
2022-09-27T18:14:27.455Z,94450.38
2022-09-27T18:17:13.439Z,94442.22
2022-09-27T18:20:02.104Z,94466.03
2022-09-27T18:22:48.032Z,94465.50
2022-09-27T18:25:40.447Z,94457.59
2022-09-27T18:28:29.841Z,94458.69
2022-09-27T18:31:17.214Z,94473.03
2022-09-27T18:34:03.942Z,94459.47
2022-09-27T18:36:49.907Z,94467.31
2022-09-27T18:39:36.253Z,94474.59
2022-09-27T18:42:22.204Z,94475.41
2022-09-27T18:45:08.747Z,94471.31
2022-09-27T18:47:55.428Z,94491.34
2022-09-27T18:50:41.373Z,94482.88
2022-09-27T18:53:27.388Z,94489.91
2022-09-27T18:56:15.669Z,94499.34
2022-09-27T18:59:01.714Z,94500.97
2022-09-27T19:01:47.910Z,94501.72
2022-09-27T19:04:33.925Z,94512.81
2022-09-27T19:07:20.348Z,94512.19
2022-09-27T19:10:07.121Z,94517.06
2022-09-27T19:12:56.904Z,94513.25
2022-09-27T19:15:43.666Z,94511.84
2022-09-27T19:18:30.026Z,94503.34
2022-09-27T19:21:21.496Z,94526.34
2022-09-27T19:24:07.848Z,94526.00
2022-09-27T19:26:55.932Z,94529.19
2022-09-27T19:29:41.853Z,94514.44
2022-09-27T19:32:27.865Z,94526.38
2022-09-27T19:35:14.093Z,94537.13
2022-09-27T19:38:00.097Z,94536.81
2022-09-27T19:40:53.516Z,94544.56
2022-09-27T19:43:40.040Z,94531.44
2022-09-27T19:46:26.657Z,94546.91
2022-09-27T19:49:13.080Z,94547.59
2022-09-27T19:51:59.366Z,94558.91
2022-09-27T19:54:45.822Z,94557.25
2022-09-27T19:57:31.894Z,94541.63
2022-09-27T20:00:18.236Z,94559.31
2022-09-27T20:03:04.354Z,94550.81
2022-09-27T20:05:57.048Z,94561.91
2022-09-27T20:08:44.189Z,94546.88
2022-09-27T20:11:31.384Z,94553.97
2022-09-27T20:14:17.991Z,94545.66
2022-09-27T20:17:04.049Z,94558.50
2022-09-27T20:19:50.121Z,94564.34
2022-09-27T20:22:36.079Z,94565.66
2022-09-27T20:25:23.114Z,94576.94
2022-09-27T20:28:09.122Z,94584.19
2022-09-27T20:30:59.981Z,94576.00
2022-09-27T20:33:50.860Z,94598.69
2022-09-27T20:36:39.676Z,94597.53
2022-09-27T20:39:26.053Z,94611.53
2022-09-27T20:42:12.258Z,94605.03
2022-09-27T20:44:58.366Z,94597.66
2022-09-27T20:47:44.488Z,94594.00
2022-09-27T20:50:30.479Z,94605.00
2022-09-27T20:53:16.655Z,94613.66
2022-09-27T20:56:02.989Z,94607.94
2022-09-27T20:58:51.238Z,94621.13
2022-09-27T21:01:37.192Z,94602.56
2022-09-27T21:04:23.645Z,94618.75
2022-09-27T21:07:09.448Z,94604.53
2022-09-27T21:09:55.676Z,94604.66
2022-09-27T21:12:41.459Z,94600.25
2022-09-27T21:15:27.491Z,94616.53
2022-09-27T21:18:13.961Z,94612.44
2022-09-27T21:21:12.438Z,94618.00
2022-09-27T21:24:01.157Z,94612.50
2022-09-27T21:26:47.350Z,94615.38
2022-09-27T21:29:33.193Z,94619.19
2022-09-27T21:32:19.205Z,94620.44
2022-09-27T21:35:05.806Z,94603.13
2022-09-27T21:37:51.834Z,94616.75
2022-09-27T21:40:37.968Z,94606.47
2022-09-27T21:43:28.222Z,94628.38
2022-09-27T21:46:16.506Z,94600.41
2022-09-27T21:49:02.953Z,94604.75
2022-09-27T21:51:48.824Z,94619.94
2022-09-27T21:54:34.837Z,94597.00
2022-09-27T21:57:20.862Z,94592.69
2022-09-27T22:00:07.669Z,94580.72
2022-09-27T22:02:59.625Z,94589.06
2022-09-27T22:05:46.625Z,94580.84
2022-09-27T22:08:33.091Z,94588.91
2022-09-27T22:11:24.878Z,94593.28
2022-09-27T22:14:11.751Z,94587.53
2022-09-27T22:16:57.762Z,94558.78
2022-09-27T22:19:43.786Z,94577.38
2022-09-27T22:22:29.528Z,94588.81
2022-09-27T22:25:15.511Z,94566.41
2022-09-27T22:28:02.046Z,94583.75
2022-09-27T22:30:47.941Z,94580.44
2022-09-27T22:33:34.155Z,94565.38
2022-09-27T22:36:21.304Z,94585.50
2022-09-27T22:39:07.220Z,94594.28
2022-09-27T22:41:53.004Z,94578.13
2022-09-27T22:44:39.397Z,94583.66
2022-09-27T22:47:25.301Z,94570.72
2022-09-27T22:50:11.860Z,94582.41
2022-09-27T22:52:57.839Z,94569.78
2022-09-27T22:55:43.568Z,94574.47
2022-09-27T22:58:29.882Z,94538.69
2022-09-27T23:01:24.169Z,94588.19
2022-09-27T23:04:10.142Z,94592.16
2022-09-27T23:06:55.844Z,94575.22
2022-09-27T23:09:41.753Z,94582.59
2022-09-27T23:12:27.503Z,94591.25
2022-09-27T23:15:18.403Z,94570.78
2022-09-27T23:18:06.496Z,94584.00
2022-09-27T23:20:52.605Z,94579.81
2022-09-27T23:23:41.264Z,94579.81
2022-09-27T23:26:28.070Z,94587.06
2022-09-27T23:29:14.217Z,94586.47
2022-09-27T23:32:00.773Z,94593.16
2022-09-27T23:34:46.818Z,94580.25
2022-09-27T23:37:32.786Z,94587.97
2022-09-27T23:40:18.715Z,94530.75
2022-09-27T23:43:04.688Z,94581.22
2022-09-27T23:45:50.931Z,94580.72
2022-09-27T23:48:37.299Z,94578.00
2022-09-27T23:51:23.118Z,94560.13
2022-09-27T23:54:09.063Z,94575.31
2022-09-27T23:56:54.941Z,94569.69
2022-09-27T23:59:41.047Z,94576.25
